< < Back
Terminal Aerodrome Forecast


Current Version              Previous Versions:   1  2  3  4  5  6  7  8  9  

Terminal Aerodrome Forecast

392
FTUS42 KGSP 200500 CCA
TAFHKY
TAF COR
KHKY 200555Z 2006/2106 00000KT 1SM BR BKN240
      TEMPO 2008/2012 1/2SM FG
     FM201300 00000KT 6SM BR SCT200
     FM201500 21006KT P6SM SCT200=

Latest METAR

151
SAUS70 KWBC 201700 RRE
MTRHKY
METAR KHKY 201653Z 22009KT 10SM FEW039 18/09 A3006 RMK AO2 SLP167
T01780089


USA.gov is the U.S. government's official web portal to all federal, state and local government web resources and services.